createdAt,value
2022-12-22T00:01:05.375Z,5.90
2022-12-22T00:06:28.990Z,5.03
2022-12-22T00:11:50.677Z,5.80
2022-12-22T00:17:12.244Z,7.50
2022-12-22T00:22:40.972Z,7.07
2022-12-22T00:28:02.795Z,6.43
2022-12-22T00:33:25.127Z,5.95
2022-12-22T00:44:25.780Z,5.22
2022-12-22T00:49:49.398Z,5.20
2022-12-22T00:55:12.539Z,4.43
2022-12-22T01:00:37.846Z,5.68
2022-12-22T01:05:59.554Z,5.85
2022-12-22T01:11:21.613Z,5.20
2022-12-22T01:16:43.236Z,5.70
2022-12-22T01:22:04.740Z,5.05
2022-12-22T01:27:27.926Z,4.97
2022-12-22T01:32:49.710Z,6.38
2022-12-22T01:38:11.304Z,5.35
2022-12-22T01:43:46.083Z,5.47
2022-12-22T01:49:07.676Z,5.10
2022-12-22T01:54:31.425Z,6.45
2022-12-22T01:59:53.216Z,6.07
2022-12-22T02:05:23.007Z,5.53
2022-12-22T02:11:11.999Z,5.03
2022-12-22T02:16:57.063Z,6.28
2022-12-22T02:22:52.423Z,5.35
2022-12-22T02:28:14.853Z,5.75
2022-12-22T02:33:37.854Z,6.05
2022-12-22T02:45:17.953Z,6.07
2022-12-22T02:50:50.110Z,6.60
2022-12-22T02:56:20.893Z,5.97
2022-12-22T03:07:23.918Z,5.45
2022-12-22T03:12:50.696Z,5.82
2022-12-22T03:18:12.255Z,5.13
2022-12-22T03:23:34.059Z,6.97
2022-12-22T03:28:37.051Z,7.13
2022-12-22T03:33:40.780Z,7.85
2022-12-22T03:38:43.837Z,6.03
2022-12-22T03:44:05.425Z,7.18
2022-12-22T03:49:11.367Z,7.75
2022-12-22T03:59:36.587Z,6.03
2022-12-22T04:04:39.682Z,7.70
2022-12-22T04:10:02.695Z,7.88
2022-12-22T04:15:06.567Z,9.75
2022-12-22T04:20:10.171Z,7.85
2022-12-22T04:25:13.594Z,7.13
2022-12-22T04:30:17.329Z,8.40
2022-12-22T04:35:20.372Z,9.82
2022-12-22T04:45:40.113Z,8.88
2022-12-22T04:50:43.282Z,8.13
2022-12-22T04:55:51.196Z,9.38
2022-12-22T05:00:54.771Z,8.38
2022-12-22T05:05:57.936Z,8.50
2022-12-22T05:11:01.283Z,9.55
2022-12-22T05:16:22.931Z,9.02
2022-12-22T05:21:26.068Z,8.48
2022-12-22T05:26:29.510Z,8.90
2022-12-22T05:31:32.605Z,9.48
2022-12-22T05:36:35.949Z,10.18
2022-12-22T05:41:39.015Z,9.27
2022-12-22T05:46:42.098Z,8.27
2022-12-22T05:51:46.111Z,9.38
2022-12-22T05:56:49.135Z,9.98
2022-12-22T06:01:52.232Z,7.82
2022-12-22T06:06:55.371Z,9.52
2022-12-22T06:11:58.608Z,7.90
2022-12-22T06:17:01.948Z,9.57
2022-12-22T06:22:05.229Z,9.68
2022-12-22T06:27:09.179Z,8.68
2022-12-22T06:32:12.241Z,8.07
2022-12-22T06:37:15.366Z,8.77
2022-12-22T06:47:56.685Z,7.85
2022-12-22T06:52:59.954Z,7.80
2022-12-22T06:58:03.460Z,7.47
2022-12-22T07:03:06.840Z,7.45
2022-12-22T07:08:10.137Z,8.35
2022-12-22T07:13:22.059Z,7.97
2022-12-22T07:23:45.345Z,8.45
2022-12-22T07:28:48.529Z,7.68
2022-12-22T07:39:14.906Z,8.45
2022-12-22T07:44:18.197Z,8.15
2022-12-22T07:49:39.673Z,8.18
2022-12-22T07:54:42.817Z,8.93
2022-12-22T07:59:45.836Z,9.02
2022-12-22T08:04:48.955Z,8.02
2022-12-22T08:09:51.997Z,7.65
2022-12-22T08:20:15.054Z,9.15
2022-12-22T08:25:18.222Z,8.20
2022-12-22T08:30:21.377Z,7.90
2022-12-22T08:35:24.597Z,6.90
2022-12-22T08:40:32.272Z,7.28
2022-12-22T08:45:35.467Z,7.72
2022-12-22T08:50:38.554Z,8.05
2022-12-22T08:55:42.035Z,7.78
2022-12-22T09:00:45.214Z,7.85
2022-12-22T09:05:48.341Z,8.60
2022-12-22T09:10:51.443Z,8.85
2022-12-22T09:15:54.492Z,7.35
2022-12-22T09:20:57.684Z,8.70
2022-12-22T09:26:13.699Z,7.72
2022-12-22T09:31:17.087Z,8.43
2022-12-22T09:36:23.251Z,8.05
2022-12-22T09:41:36.016Z,8.02
2022-12-22T09:46:40.913Z,7.97
2022-12-22T09:51:48.520Z,7.18
2022-12-22T09:56:53.264Z,6.72
2022-12-22T10:02:25.079Z,7.80
2022-12-22T10:07:40.434Z,7.78
2022-12-22T10:12:43.564Z,6.65
2022-12-22T10:17:47.503Z,7.22
2022-12-22T10:22:59.215Z,5.97
2022-12-22T10:33:34.815Z,6.35
2022-12-22T10:44:22.278Z,6.47
2022-12-22T10:49:25.435Z,6.43
2022-12-22T10:54:33.938Z,6.65
2022-12-22T10:59:52.408Z,7.20
2022-12-22T11:05:05.821Z,7.53
2022-12-22T11:10:15.152Z,7.00
2022-12-22T11:15:55.039Z,6.70
2022-12-22T11:21:24.387Z,6.35
2022-12-22T11:26:49.514Z,5.60
2022-12-22T11:37:49.451Z,6.32
2022-12-22T11:43:20.074Z,6.13
2022-12-22T11:54:12.326Z,4.38
2022-12-22T11:59:56.440Z,5.30
2022-12-22T12:05:38.995Z,6.45
2022-12-22T12:16:35.291Z,4.97
2022-12-22T12:21:53.038Z,5.50
2022-12-22T12:27:33.332Z,5.45
2022-12-22T12:38:08.455Z,6.97
2022-12-22T12:43:16.450Z,6.10
2022-12-22T12:48:23.921Z,6.38
2022-12-22T12:53:29.011Z,8.23
2022-12-22T13:04:03.561Z,6.00
2022-12-22T13:09:48.743Z,6.60
2022-12-22T13:14:56.344Z,7.85
2022-12-22T13:19:59.990Z,6.80
2022-12-22T13:25:04.425Z,7.07
2022-12-22T13:30:17.953Z,7.00
2022-12-22T13:35:35.543Z,6.88
2022-12-22T13:40:44.005Z,7.75
2022-12-22T13:45:53.535Z,8.70
2022-12-22T13:51:05.851Z,7.05
2022-12-22T13:56:15.487Z,7.63
2022-12-22T14:01:20.156Z,8.07
2022-12-22T14:06:28.498Z,6.70
2022-12-22T14:11:31.901Z,8.10
2022-12-22T14:22:18.381Z,8.00
2022-12-22T14:27:38.963Z,6.82
2022-12-22T14:38:24.350Z,7.70
2022-12-22T14:43:31.818Z,8.60
2022-12-22T14:48:45.783Z,6.82
2022-12-22T14:53:53.171Z,7.80
2022-12-22T14:59:22.506Z,7.35
2022-12-22T15:04:25.692Z,6.25
2022-12-22T15:14:52.933Z,7.63
2022-12-22T15:19:59.265Z,8.18
2022-12-22T15:25:02.491Z,8.45
2022-12-22T15:30:06.195Z,7.75
2022-12-22T15:35:21.228Z,7.50
2022-12-22T15:40:25.517Z,8.23
2022-12-22T15:45:30.436Z,9.45
2022-12-22T15:50:39.261Z,6.78
2022-12-22T16:01:02.011Z,8.52
2022-12-22T16:06:07.163Z,6.50
2022-12-22T16:11:10.277Z,8.30
2022-12-22T16:21:33.399Z,8.90
2022-12-22T16:26:37.391Z,9.05
2022-12-22T16:31:40.549Z,7.13
2022-12-22T16:36:43.690Z,8.70
2022-12-22T16:41:46.811Z,8.20
2022-12-22T16:47:05.815Z,9.35
2022-12-22T16:52:21.871Z,8.30
2022-12-22T16:57:24.988Z,10.18
2022-12-22T17:07:53.276Z,10.00
2022-12-22T17:12:59.138Z,10.35
2022-12-22T17:18:03.818Z,10.40
2022-12-22T17:23:06.925Z,10.27
2022-12-22T17:28:13.540Z,8.23
2022-12-22T17:33:17.323Z,7.97
2022-12-22T17:38:23.326Z,9.38
2022-12-22T17:43:26.695Z,8.88
2022-12-22T17:48:29.708Z,10.50
2022-12-22T17:53:40.808Z,8.90
2022-12-22T17:58:51.989Z,10.38
2022-12-22T18:03:55.840Z,8.45
2022-12-22T18:08:59.482Z,9.20
2022-12-22T18:14:03.246Z,9.57
2022-12-22T18:19:06.359Z,9.50
2022-12-22T18:24:19.999Z,8.07
2022-12-22T18:29:23.038Z,8.18
2022-12-22T18:34:26.034Z,8.05
2022-12-22T18:39:29.506Z,8.38
2022-12-22T18:44:32.523Z,9.15
2022-12-22T18:49:35.619Z,9.15
2022-12-22T18:54:40.258Z,7.72
2022-12-22T18:59:44.062Z,7.95
2022-12-22T19:05:01.049Z,9.13
2022-12-22T19:10:04.685Z,8.15
2022-12-22T19:15:18.402Z,8.35
2022-12-22T19:20:25.986Z,8.30
2022-12-22T19:25:31.880Z,8.70
2022-12-22T19:30:35.026Z,9.68
2022-12-22T19:35:38.099Z,10.23
2022-12-22T19:46:01.483Z,9.70
2022-12-22T19:51:04.831Z,9.40
2022-12-22T19:56:24.492Z,9.38
2022-12-22T20:01:28.134Z,8.30
2022-12-22T20:06:31.217Z,9.43
2022-12-22T20:11:34.608Z,9.32
2022-12-22T20:16:37.696Z,9.38
2022-12-22T20:21:41.189Z,8.52
2022-12-22T20:26:47.330Z,8.52
2022-12-22T20:31:55.056Z,9.30
2022-12-22T20:36:59.044Z,9.27
2022-12-22T20:42:02.115Z,8.95
2022-12-22T20:47:05.291Z,9.40
2022-12-22T20:52:15.498Z,9.65
2022-12-22T20:57:26.773Z,9.48
2022-12-22T21:02:36.966Z,9.63
2022-12-22T21:07:41.850Z,10.38
2022-12-22T21:12:45.330Z,10.52
2022-12-22T21:17:52.791Z,9.38
2022-12-22T21:22:59.303Z,9.32
2022-12-22T21:28:02.974Z,8.43
2022-12-22T21:33:06.005Z,9.10
2022-12-22T21:38:17.140Z,9.60
2022-12-22T21:43:20.181Z,10.88
2022-12-22T21:48:23.298Z,8.43
2022-12-22T21:53:26.351Z,9.75
2022-12-22T21:58:29.471Z,7.78
2022-12-22T22:03:33.911Z,10.55
2022-12-22T22:08:37.078Z,11.45
2022-12-22T22:13:40.199Z,11.52
2022-12-22T22:18:45.471Z,11.90
2022-12-22T22:23:48.617Z,9.27
2022-12-22T22:28:54.117Z,9.55
2022-12-22T22:33:57.198Z,10.35
2022-12-22T22:39:00.339Z,10.43
2022-12-22T22:44:03.523Z,9.13
2022-12-22T22:49:07.619Z,7.30
2022-12-22T22:54:11.714Z,7.10
2022-12-22T22:59:15.050Z,9.80
2022-12-22T23:04:18.188Z,8.77
2022-12-22T23:09:21.309Z,12.18
2022-12-22T23:14:26.057Z,11.82
2022-12-22T23:19:29.265Z,9.90
2022-12-22T23:24:32.431Z,10.55
2022-12-22T23:29:37.427Z,10.38
2022-12-22T23:34:40.669Z,12.23
2022-12-22T23:39:43.753Z,11.15
2022-12-22T23:44:46.829Z,11.55
2022-12-22T23:49:49.823Z,12.25
2022-12-22T23:54:52.813Z,11.18
2022-12-22T23:59:56.005Z,11.52
